createdAt,value
2022-09-15T00:01:18.347Z,99165.19
2022-09-15T00:03:47.619Z,99161.23
2022-09-15T00:06:15.844Z,99161.06
2022-09-15T00:08:44.178Z,99162.05
2022-09-15T00:11:22.761Z,99155.16
2022-09-15T00:13:52.462Z,99160.91
2022-09-15T00:16:23.140Z,99160.34
2022-09-15T00:18:51.474Z,99155.69
2022-09-15T00:21:22.507Z,99153.75
2022-09-15T00:23:51.105Z,99157.63
2022-09-15T00:26:22.205Z,99142.27
2022-09-15T00:28:50.919Z,99164.53
2022-09-15T00:31:21.609Z,99161.93
2022-09-15T00:33:52.322Z,99167.60
2022-09-15T00:36:21.698Z,99164.33
2022-09-15T00:38:50.454Z,99166.30
2022-09-15T00:41:20.246Z,99167.16
2022-09-15T00:43:47.999Z,99169.95
2022-09-15T00:46:19.197Z,99173.29
2022-09-15T00:49:13.950Z,99172.21
2022-09-15T00:52:04.454Z,99167.96
2022-09-15T00:54:40.859Z,99162.63
2022-09-15T00:57:18.023Z,99156.36
2022-09-15T00:59:48.797Z,99152.27
2022-09-15T01:02:21.967Z,99154.33
2022-09-15T01:04:57.409Z,99155.45
2022-09-15T01:07:38.810Z,99159.85
2022-09-15T01:10:18.407Z,99159.25
2022-09-15T01:12:46.879Z,99145.80
2022-09-15T01:15:16.085Z,99129.90
2022-09-15T01:18:12.737Z,99126.70
2022-09-15T01:20:57.319Z,99125.80
2022-09-15T01:23:34.079Z,99131.48
2022-09-15T01:26:20.283Z,99131.39
2022-09-15T01:29:21.736Z,99119.61
2022-09-15T01:32:26.170Z,99115.84
2022-09-15T01:35:15.319Z,99108.23
2022-09-15T01:37:50.837Z,99109.33
2022-09-15T01:40:20.218Z,99114.86
2022-09-15T01:42:51.101Z,99115.75
2022-09-15T01:45:24.008Z,99116.09
2022-09-15T01:47:57.139Z,99122.04
2022-09-15T01:50:31.655Z,99119.39
2022-09-15T01:53:04.165Z,99116.05
2022-09-15T01:55:41.943Z,99119.90
2022-09-15T01:58:09.951Z,99109.63
2022-09-15T02:00:43.950Z,99106.94
2022-09-15T02:03:21.798Z,99112.35
2022-09-15T02:06:02.223Z,99112.59
2022-09-15T02:08:45.405Z,99110.35
2022-09-15T02:11:26.032Z,99109.58
2022-09-15T02:14:11.602Z,99104.71
2022-09-15T02:16:43.940Z,99096.34
2022-09-15T02:19:31.809Z,99090.55
2022-09-15T02:22:11.114Z,99086.21
2022-09-15T02:24:44.521Z,99082.69
2022-09-15T02:27:24.594Z,99088.91
2022-09-15T02:29:56.342Z,99083.71
2022-09-15T02:32:28.158Z,99078.55
2022-09-15T02:34:59.324Z,99076.22
2022-09-15T02:37:27.654Z,99081.78
2022-09-15T02:39:59.507Z,99082.45
2022-09-15T02:42:30.415Z,99085.45
2022-09-15T02:45:00.904Z,99082.65
2022-09-15T02:47:30.437Z,99076.40
2022-09-15T02:49:58.644Z,99079.27
2022-09-15T02:52:26.534Z,99079.99
2022-09-15T02:54:54.472Z,99079.15
2022-09-15T02:57:22.252Z,99081.62
2022-09-15T03:00:08.614Z,99077.92
2022-09-15T03:02:37.328Z,99082.13
2022-09-15T03:05:07.209Z,99056.19
2022-09-15T03:07:37.072Z,99076.87
2022-09-15T03:10:09.657Z,99076.12
2022-09-15T03:12:42.113Z,99076.16
2022-09-15T03:15:12.414Z,99081.96
2022-09-15T03:17:43.102Z,99079.52
2022-09-15T03:20:14.183Z,99074.71
2022-09-15T03:22:42.275Z,99071.65
2022-09-15T03:25:11.424Z,99070.64
2022-09-15T03:27:39.884Z,99072.97
2022-09-15T03:30:09.830Z,99071.53
2022-09-15T03:32:37.611Z,99076.83
2022-09-15T03:35:07.239Z,99079.90
2022-09-15T03:37:35.430Z,99082.84
2022-09-15T03:40:04.405Z,99077.02
2022-09-15T03:42:32.748Z,99079.70
2022-09-15T03:45:00.453Z,99079.53
2022-09-15T03:47:28.358Z,99081.95
2022-09-15T03:49:56.104Z,99089.95
2022-09-15T03:52:23.822Z,99086.73
2022-09-15T03:54:51.795Z,99089.59
2022-09-15T03:57:19.479Z,99092.90
2022-09-15T03:59:47.183Z,99091.41
2022-09-15T04:02:16.118Z,99088.54
2022-09-15T04:04:44.017Z,99088.30
2022-09-15T04:07:11.700Z,99088.98
2022-09-15T04:09:39.597Z,99087.10
2022-09-15T04:12:08.062Z,99086.63
2022-09-15T04:14:35.743Z,99082.67
2022-09-15T04:17:03.809Z,99083.89
2022-09-15T04:19:31.609Z,99084.84
2022-09-15T04:21:59.358Z,99086.23
2022-09-15T04:24:27.337Z,99074.70
2022-09-15T04:26:55.109Z,99072.42
2022-09-15T04:29:23.420Z,99068.55
2022-09-15T04:31:53.195Z,99069.56
2022-09-15T04:34:21.011Z,99070.54
2022-09-15T04:36:48.664Z,99063.91
2022-09-15T04:39:16.702Z,99063.98
2022-09-15T04:41:44.560Z,99065.71
2022-09-15T04:44:12.236Z,99063.13
2022-09-15T04:46:40.146Z,99065.30
2022-09-15T04:49:08.156Z,99066.77
2022-09-15T04:51:35.874Z,99067.51
2022-09-15T04:54:03.839Z,99075.94
2022-09-15T04:56:31.741Z,99079.58
2022-09-15T04:59:03.946Z,99075.25
2022-09-15T05:01:35.590Z,99076.41
2022-09-15T05:04:04.465Z,99076.62
2022-09-15T05:06:34.989Z,99077.02
2022-09-15T05:09:09.997Z,99076.89
2022-09-15T05:11:38.717Z,99079.31
2022-09-15T05:14:07.107Z,99080.06
2022-09-15T05:16:35.142Z,99077.20
2022-09-15T05:19:04.862Z,99076.80
2022-09-15T05:21:33.336Z,99077.23
2022-09-15T05:24:01.359Z,99077.91
2022-09-15T05:26:29.860Z,99079.58
2022-09-15T05:28:58.151Z,99081.29
2022-09-15T05:31:31.274Z,99085.59
2022-09-15T05:34:01.701Z,99082.51
2022-09-15T05:36:30.349Z,99081.80
2022-09-15T05:38:58.981Z,99087.60
2022-09-15T05:41:28.327Z,99082.86
2022-09-15T05:43:58.122Z,99084.30
2022-09-15T05:46:27.501Z,99085.23
2022-09-15T05:48:57.316Z,99087.37
2022-09-15T05:51:25.696Z,99087.40
2022-09-15T05:53:53.467Z,99087.04
2022-09-15T05:56:21.704Z,99092.11
2022-09-15T05:58:49.979Z,99100.73
2022-09-15T06:01:27.082Z,99098.30
2022-09-15T06:03:55.962Z,99102.70
2022-09-15T06:06:25.561Z,99101.25
2022-09-15T06:08:58.409Z,99101.63
2022-09-15T06:11:30.307Z,99099.38
2022-09-15T06:14:03.529Z,99088.11
2022-09-15T06:16:35.437Z,99102.04
2022-09-15T06:19:03.988Z,99100.38
2022-09-15T06:21:33.035Z,99098.17
2022-09-15T06:24:07.241Z,99097.27
2022-09-15T06:26:35.329Z,99098.13
2022-09-15T06:29:05.338Z,99098.48
2022-09-15T06:31:34.567Z,99100.06
2022-09-15T06:34:04.250Z,99098.08
2022-09-15T06:36:32.936Z,99106.08
2022-09-15T06:39:00.888Z,99111.70
2022-09-15T06:41:52.506Z,99113.27
2022-09-15T06:44:20.564Z,99114.14
2022-09-15T06:46:48.810Z,99110.76
2022-09-15T06:49:17.189Z,99111.46
2022-09-15T06:51:45.199Z,99109.39
2022-09-15T06:54:14.828Z,99114.09
2022-09-15T06:56:43.198Z,99115.73
2022-09-15T06:59:12.628Z,99116.48
2022-09-15T07:01:43.941Z,99113.02
2022-09-15T07:04:11.830Z,99114.13
2022-09-15T07:06:40.003Z,99113.52
2022-09-15T07:09:08.092Z,99114.27
2022-09-15T07:11:35.790Z,99122.79
2022-09-15T07:14:04.081Z,99125.44
2022-09-15T07:16:32.286Z,99128.93
2022-09-15T07:19:02.143Z,99128.48
2022-09-15T07:21:29.862Z,99127.66
2022-09-15T07:23:58.254Z,99126.25
2022-09-15T07:26:28.211Z,99135.04
2022-09-15T07:28:59.479Z,99134.68
2022-09-15T07:31:30.240Z,99134.27
2022-09-15T07:34:02.561Z,99121.92
2022-09-15T07:36:31.303Z,99142.10
2022-09-15T07:38:59.271Z,99142.89
2022-09-15T07:41:29.308Z,99148.52
2022-09-15T07:43:59.139Z,99148.57
2022-09-15T07:46:30.347Z,99148.02
2022-09-15T07:48:58.357Z,99147.10
2022-09-15T07:51:26.849Z,99150.05
2022-09-15T07:53:55.495Z,99150.95
2022-09-15T07:56:23.927Z,99149.15
2022-09-15T07:58:52.244Z,99152.05
2022-09-15T08:01:22.736Z,99157.83
2022-09-15T08:03:52.522Z,99165.64
2022-09-15T08:06:29.189Z,99169.36
2022-09-15T08:09:00.800Z,99167.23
2022-09-15T08:11:29.343Z,99165.70
2022-09-15T08:14:02.369Z,99159.56
2022-09-15T08:16:30.451Z,99157.43
2022-09-15T08:18:58.562Z,99153.15
2022-09-15T08:21:28.472Z,99154.02
2022-09-15T08:24:00.848Z,99158.11
2022-09-15T08:26:29.886Z,99165.82
2022-09-15T08:28:58.150Z,99165.45
2022-09-15T08:31:26.587Z,99152.80
2022-09-15T08:33:56.270Z,99168.60
2022-09-15T08:36:27.882Z,99171.52
2022-09-15T08:38:56.556Z,99164.43
2022-09-15T08:41:51.669Z,99165.98
2022-09-15T08:44:38.509Z,99169.27
2022-09-15T08:47:17.507Z,99164.92
2022-09-15T08:50:08.020Z,99164.75
2022-09-15T08:52:47.096Z,99160.86
2022-09-15T08:55:45.063Z,99163.55
2022-09-15T08:58:19.305Z,99165.79
2022-09-15T09:00:49.143Z,99171.33
2022-09-15T09:03:48.841Z,99167.73
2022-09-15T09:06:35.550Z,99166.67
2022-09-15T09:09:41.325Z,99162.84
2022-09-15T09:12:32.411Z,99162.33
2022-09-15T09:15:47.823Z,99167.04
2022-09-15T09:18:53.237Z,99165.58
2022-09-15T09:21:30.166Z,99167.90
2022-09-15T09:24:17.818Z,99168.42
2022-09-15T09:26:51.265Z,99165.11
2022-09-15T09:29:24.348Z,99161.70
2022-09-15T09:31:55.964Z,99165.38
2022-09-15T09:34:38.341Z,99159.15
2022-09-15T09:37:11.453Z,99167.27
2022-09-15T09:39:39.269Z,99163.48
2022-09-15T09:42:14.158Z,99159.66
2022-09-15T09:44:42.765Z,99152.44
2022-09-15T09:47:12.393Z,99156.38
2022-09-15T09:50:00.802Z,99161.48
2022-09-15T09:52:36.963Z,99159.75
2022-09-15T09:55:27.355Z,99156.32
2022-09-15T09:58:12.370Z,99154.62
2022-09-15T10:00:41.257Z,99155.71
2022-09-15T10:03:12.827Z,99154.59
2022-09-15T10:05:41.537Z,99154.07
2022-09-15T10:08:20.856Z,99154.77
2022-09-15T10:10:54.257Z,99151.91
2022-09-15T10:13:22.807Z,99149.55
2022-09-15T10:15:57.441Z,99141.88
2022-09-15T10:18:33.309Z,99138.95
2022-09-15T10:21:04.417Z,99141.50
2022-09-15T10:23:34.253Z,99151.77
2022-09-15T10:26:22.596Z,99151.64
2022-09-15T10:29:17.310Z,99146.38
2022-09-15T10:31:46.121Z,99146.63
2022-09-15T10:34:32.838Z,99152.48
2022-09-15T10:37:48.268Z,99154.37
2022-09-15T10:40:34.305Z,99148.52
2022-09-15T10:43:30.426Z,99138.13
2022-09-15T10:46:42.639Z,99136.30
2022-09-15T10:49:43.667Z,99138.41
2022-09-15T10:52:17.657Z,99145.29
2022-09-15T10:54:45.338Z,99148.36
2022-09-15T10:57:40.604Z,99150.64
2022-09-15T11:00:15.630Z,99157.33
2022-09-15T11:03:01.120Z,99156.16
2022-09-15T11:05:43.185Z,99147.77
2022-09-15T11:08:25.370Z,99146.84
2022-09-15T11:11:14.241Z,99142.01
2022-09-15T11:13:56.796Z,99144.74
2022-09-15T11:16:49.212Z,99146.42
2022-09-15T11:19:50.938Z,99149.86
2022-09-15T11:22:49.280Z,99148.97
2022-09-15T11:25:21.233Z,99144.38
2022-09-15T11:28:06.512Z,99145.34
2022-09-15T11:30:42.459Z,99142.28
2022-09-15T11:33:19.528Z,99142.41
2022-09-15T11:36:02.486Z,99143.77
2022-09-15T11:39:01.993Z,99146.29
2022-09-15T11:41:56.757Z,99140.09
2022-09-15T11:44:33.662Z,99137.88
2022-09-15T11:47:31.542Z,99137.33
2022-09-15T11:50:05.542Z,99135.08
2022-09-15T11:53:03.483Z,99130.66
2022-09-15T11:55:56.686Z,99127.09
2022-09-15T11:58:33.516Z,99128.15
2022-09-15T12:01:19.273Z,99125.77
2022-09-15T12:03:56.947Z,99129.23
2022-09-15T12:06:30.510Z,99131.94
2022-09-15T12:09:01.371Z,99138.30
2022-09-15T12:11:32.311Z,99138.67
2022-09-15T12:14:00.759Z,99137.86
2022-09-15T12:16:30.073Z,99138.52
2022-09-15T12:19:36.668Z,99138.44
2022-09-15T12:22:44.414Z,99142.59
2022-09-15T12:25:19.993Z,99144.49
2022-09-15T12:28:22.238Z,99154.31
2022-09-15T12:31:13.677Z,99153.87
2022-09-15T12:34:16.373Z,99157.47
2022-09-15T12:36:49.680Z,99161.16
2022-09-15T12:39:32.398Z,99157.56
2022-09-15T12:42:00.157Z,99155.60
2022-09-15T12:44:41.625Z,99154.77
2022-09-15T12:47:30.009Z,99154.54
2022-09-15T12:50:03.718Z,99151.95
2022-09-15T12:52:32.052Z,99147.17
2022-09-15T12:55:03.508Z,99143.77
2022-09-15T12:57:36.492Z,99143.27
2022-09-15T13:00:23.420Z,99143.05
2022-09-15T13:02:51.919Z,99141.66
2022-09-15T13:05:54.449Z,99143.19
2022-09-15T13:08:25.313Z,99140.75
2022-09-15T13:11:09.573Z,99139.95
2022-09-15T13:13:50.361Z,99137.08
2022-09-15T13:16:26.524Z,99136.40
2022-09-15T13:19:07.351Z,99139.21
2022-09-15T13:21:40.167Z,99136.48
2022-09-15T13:24:17.604Z,99137.63
2022-09-15T13:26:52.084Z,99136.02
2022-09-15T13:29:22.253Z,99135.05
2022-09-15T13:32:07.171Z,99135.05
2022-09-15T13:35:20.925Z,99130.29
2022-09-15T13:38:12.589Z,99126.54
2022-09-15T13:41:27.570Z,99121.48
2022-09-15T13:44:18.043Z,99115.36
2022-09-15T13:46:46.128Z,99106.89
2022-09-15T13:49:36.852Z,99106.98
2022-09-15T13:52:21.060Z,99105.64
2022-09-15T13:55:21.734Z,99102.00
2022-09-15T14:01:02.360Z,99103.63
2022-09-15T14:03:57.372Z,99108.30
2022-09-15T14:06:40.094Z,99100.10
2022-09-15T14:09:15.127Z,99100.05
2022-09-15T14:11:46.374Z,99096.25
2022-09-15T14:14:44.280Z,99099.59
2022-09-15T14:17:24.526Z,99094.33
2022-09-15T14:19:57.090Z,99094.85
2022-09-15T14:22:31.514Z,99091.36
2022-09-15T14:25:05.501Z,99091.82
2022-09-15T14:27:35.551Z,99094.34
2022-09-15T14:30:09.470Z,99084.30
2022-09-15T14:32:43.993Z,99082.39
2022-09-15T14:35:23.265Z,99082.86
2022-09-15T14:37:57.796Z,99077.91
2022-09-15T14:40:30.463Z,99078.63
2022-09-15T14:42:58.494Z,99079.79
2022-09-15T14:48:30.124Z,99075.34
2022-09-15T14:51:05.109Z,99073.85
2022-09-15T14:53:35.691Z,99069.67
2022-09-15T14:56:25.058Z,99069.44
2022-09-15T14:58:56.200Z,99063.28
2022-09-15T15:01:40.772Z,99066.02
2022-09-15T15:04:30.925Z,99064.30
2022-09-15T15:07:09.455Z,99067.61
2022-09-15T15:09:44.129Z,99071.37
2022-09-15T15:12:40.031Z,99067.30
2022-09-15T15:15:12.532Z,99062.47
2022-09-15T15:17:45.430Z,99063.59
2022-09-15T15:20:27.261Z,99058.37
2022-09-15T15:23:12.173Z,99048.89
2022-09-15T15:25:41.823Z,99049.98
2022-09-15T15:28:29.518Z,99050.10
2022-09-15T15:31:25.151Z,99053.72
2022-09-15T15:34:05.532Z,99050.45
2022-09-15T15:36:36.021Z,99052.40
2022-09-15T15:39:07.106Z,99050.42
2022-09-15T15:41:41.141Z,99055.84
2022-09-15T15:44:15.178Z,99052.52
2022-09-15T15:46:54.231Z,99054.92
2022-09-15T15:49:27.515Z,99051.05
2022-09-15T15:51:56.599Z,99049.21
2022-09-15T15:54:25.300Z,99052.00
2022-09-15T15:56:54.035Z,99056.14
2022-09-15T15:59:21.972Z,99054.17
2022-09-15T16:01:55.212Z,99057.77
2022-09-15T16:04:23.204Z,99061.79
2022-09-15T16:06:51.872Z,99061.65
2022-09-15T16:09:20.828Z,99061.33
2022-09-15T16:11:49.086Z,99062.30
2022-09-15T16:14:17.251Z,99061.55
2022-09-15T16:16:45.502Z,99057.67
2022-09-15T16:19:13.785Z,99057.49
2022-09-15T16:21:42.431Z,99057.67
2022-09-15T16:24:14.394Z,99064.25
2022-09-15T16:26:43.102Z,99064.71
2022-09-15T16:29:11.960Z,99072.27
2022-09-15T16:31:40.685Z,99070.43
2022-09-15T16:34:19.806Z,99069.05
2022-09-15T16:36:47.636Z,99068.95
2022-09-15T16:39:15.460Z,99063.60
2022-09-15T16:41:43.496Z,99069.86
2022-09-15T16:44:17.983Z,99076.58
2022-09-15T16:46:46.642Z,99071.36
2022-09-15T16:49:14.661Z,99071.68
2022-09-15T16:51:42.476Z,99069.77
2022-09-15T16:54:16.053Z,99071.87
2022-09-15T16:56:45.850Z,99075.05
2022-09-15T16:59:14.010Z,99075.41
2022-09-15T17:01:41.945Z,99081.23
2022-09-15T17:04:15.899Z,99081.92
2022-09-15T17:06:43.903Z,99082.58
2022-09-15T17:09:12.335Z,99085.10
2022-09-15T17:11:40.309Z,99085.41
2022-09-15T17:14:13.385Z,99086.27
2022-09-15T17:16:41.738Z,99088.46
2022-09-15T17:19:09.879Z,99088.77
2022-09-15T17:21:37.770Z,99087.94
2022-09-15T17:24:06.085Z,99090.73
2022-09-15T17:26:34.007Z,99090.50
2022-09-15T17:29:01.852Z,99088.63
2022-09-15T17:31:30.095Z,99085.44
2022-09-15T17:33:58.136Z,99046.11
2022-09-15T17:36:26.269Z,99080.81
2022-09-15T17:38:54.319Z,99086.77
2022-09-15T17:41:24.692Z,99094.09
2022-09-15T17:43:53.276Z,99087.47
2022-09-15T17:46:21.512Z,99086.51
2022-09-15T17:48:49.385Z,99095.67
2022-09-15T17:51:17.681Z,99092.70
2022-09-15T17:53:47.242Z,99095.01
2022-09-15T17:56:15.342Z,99097.90
2022-09-15T17:58:44.778Z,99092.26
2022-09-15T18:01:14.650Z,99099.39
2022-09-15T18:03:44.874Z,99104.70
2022-09-15T18:06:13.094Z,99103.37
2022-09-15T18:08:41.404Z,99101.88
2022-09-15T18:11:13.691Z,99098.39
2022-09-15T18:13:41.997Z,99101.98
2022-09-15T18:16:14.766Z,99104.96
2022-09-15T18:18:43.207Z,99102.23
2022-09-15T18:21:28.066Z,99099.37
2022-09-15T18:23:59.907Z,99103.96
2022-09-15T18:26:28.753Z,99103.32
2022-09-15T18:28:57.053Z,99104.37
2022-09-15T18:31:25.565Z,99103.08
2022-09-15T18:33:54.016Z,99096.85
2022-09-15T18:36:22.234Z,99109.60
2022-09-15T18:38:50.222Z,99110.66
2022-09-15T18:41:18.688Z,99103.75
2022-09-15T18:43:49.500Z,99100.41
2022-09-15T18:46:18.328Z,99102.66
2022-09-15T18:48:46.678Z,99105.00
2022-09-15T18:51:23.695Z,99106.16
2022-09-15T18:53:57.623Z,99110.95
2022-09-15T18:56:25.820Z,99108.02
2022-09-15T18:58:54.975Z,99105.55
2022-09-15T19:01:23.396Z,99112.66
2022-09-15T19:03:52.276Z,99111.14
2022-09-15T19:06:20.321Z,99111.55
2022-09-15T19:08:49.116Z,99112.38
2022-09-15T19:11:17.613Z,99114.17
2022-09-15T19:13:47.661Z,99118.52
2022-09-15T19:16:15.910Z,99121.12
2022-09-15T19:18:45.106Z,99118.14
2022-09-15T19:21:13.022Z,99119.35
2022-09-15T19:23:40.890Z,99112.64
2022-09-15T19:26:16.963Z,99112.60
2022-09-15T19:28:50.034Z,99112.46
2022-09-15T19:31:18.465Z,99114.02
2022-09-15T19:33:46.413Z,99117.96
2022-09-15T19:36:27.988Z,99122.13
2022-09-15T19:39:02.910Z,99121.67
2022-09-15T19:41:31.779Z,99129.10
2022-09-15T19:44:02.431Z,99128.10
2022-09-15T19:46:31.264Z,99122.96
2022-09-15T19:48:59.881Z,99127.27
2022-09-15T19:51:28.207Z,99125.76
2022-09-15T19:53:59.129Z,99128.73
2022-09-15T19:56:28.343Z,99129.27
2022-09-15T19:58:58.570Z,99132.90
2022-09-15T20:01:29.148Z,99133.60
2022-09-15T20:06:44.725Z,99131.08
2022-09-15T20:09:16.975Z,99137.77
2022-09-15T20:11:45.185Z,99086.79
2022-09-15T20:14:14.563Z,99144.03
2022-09-15T20:16:42.876Z,99143.47
2022-09-15T20:19:11.074Z,99143.86
2022-09-15T20:21:56.322Z,99145.61
2022-09-15T20:24:24.817Z,99141.55
2022-09-15T20:26:54.102Z,99133.61
2022-09-15T20:29:23.888Z,99138.02
2022-09-15T20:31:52.432Z,99137.38
2022-09-15T20:34:23.378Z,99134.88
2022-09-15T20:36:51.700Z,99135.16
2022-09-15T20:39:22.854Z,99137.98
2022-09-15T20:41:50.969Z,99138.80
2022-09-15T20:44:19.054Z,99139.88
2022-09-15T20:46:47.552Z,99137.39
2022-09-15T20:49:16.454Z,99140.38
2022-09-15T20:51:46.620Z,99138.29
2022-09-15T20:54:15.479Z,99144.38
2022-09-15T20:56:44.557Z,99144.08
2022-09-15T20:59:15.947Z,99149.60
2022-09-15T21:01:44.240Z,99142.58
2022-09-15T21:04:13.071Z,99145.48
2022-09-15T21:06:41.123Z,99145.33
2022-09-15T21:09:09.435Z,99134.27
2022-09-15T21:11:37.798Z,99145.14
2022-09-15T21:14:05.928Z,99146.17
2022-09-15T21:16:35.005Z,99149.20
2022-09-15T21:19:20.081Z,99147.65
2022-09-15T21:21:48.097Z,99146.41
2022-09-15T21:24:16.097Z,99150.84
2022-09-15T21:27:02.798Z,99150.87
2022-09-15T21:29:31.786Z,99161.17
2022-09-15T21:32:00.289Z,99159.56
2022-09-15T21:34:28.587Z,99162.40
2022-09-15T21:36:57.105Z,99163.33
2022-09-15T21:39:25.587Z,99166.23
2022-09-15T21:41:54.378Z,99151.48
2022-09-15T21:44:22.314Z,99167.70
2022-09-15T21:46:52.855Z,99173.61
2022-09-15T21:49:20.872Z,99180.95
2022-09-15T21:51:48.894Z,99181.39
2022-09-15T21:54:16.994Z,99181.50
2022-09-15T21:56:45.376Z,99184.77
2022-09-15T21:59:13.401Z,99184.21
2022-09-15T22:01:41.955Z,99187.95
2022-09-15T22:04:10.724Z,99190.69
2022-09-15T22:06:41.405Z,99188.72
2022-09-15T22:09:14.425Z,99190.43
2022-09-15T22:11:42.842Z,99190.00
2022-09-15T22:14:13.229Z,99187.61
2022-09-15T22:16:43.258Z,99168.80
2022-09-15T22:19:12.935Z,99189.64
2022-09-15T22:21:42.170Z,99196.83
2022-09-15T22:24:14.147Z,99199.09
2022-09-15T22:26:43.716Z,99201.27
2022-09-15T22:29:13.921Z,99204.41
2022-09-15T22:31:42.433Z,99204.01
2022-09-15T22:34:10.726Z,99207.61
2022-09-15T22:36:39.093Z,99208.13
2022-09-15T22:39:07.898Z,99214.41
2022-09-15T22:41:39.655Z,99216.19
2022-09-15T22:44:17.834Z,99214.67
2022-09-15T22:46:46.207Z,99217.93
2022-09-15T22:49:14.530Z,99211.58
2022-09-15T22:51:43.176Z,99212.30
2022-09-15T22:54:11.091Z,99208.39
2022-09-15T22:56:39.014Z,99212.89
2022-09-15T22:59:07.219Z,99213.24
2022-09-15T23:01:36.179Z,99212.96
2022-09-15T23:04:04.114Z,99212.96
2022-09-15T23:06:34.393Z,99217.75
2022-09-15T23:09:05.967Z,99217.48
2022-09-15T23:11:34.752Z,99216.13
2022-09-15T23:14:02.897Z,99215.38
2022-09-15T23:16:32.479Z,99220.01
2022-09-15T23:19:00.577Z,99221.48
2022-09-15T23:21:29.235Z,99226.91
2022-09-15T23:23:57.349Z,99225.36
2022-09-15T23:26:26.478Z,99221.21
2022-09-15T23:28:55.120Z,99219.71
2022-09-15T23:31:23.127Z,99220.67
2022-09-15T23:33:50.946Z,99217.97
2022-09-15T23:36:19.815Z,99218.16
2022-09-15T23:38:49.384Z,99215.85
2022-09-15T23:41:18.593Z,99216.95
2022-09-15T23:43:46.814Z,99226.36
2022-09-15T23:46:16.960Z,99223.33
2022-09-15T23:48:45.230Z,99221.45
2022-09-15T23:51:13.316Z,99221.25
2022-09-15T23:53:42.055Z,99225.38
2022-09-15T23:56:09.799Z,99227.45
2022-09-15T23:58:37.819Z,99224.76
